createdAt,value
2022-12-20T00:01:17.413Z,11.05
2022-12-20T00:03:44.603Z,10.80
2022-12-20T00:06:12.907Z,10.57
2022-12-20T00:08:39.329Z,10.48
2022-12-20T00:11:07.103Z,10.05
2022-12-20T00:13:34.543Z,10.13
2022-12-20T00:16:06.371Z,10.07
2022-12-20T00:18:33.172Z,9.32
2022-12-20T00:21:01.579Z,10.15
2022-12-20T00:23:29.734Z,10.10
2022-12-20T00:26:27.066Z,10.05
2022-12-20T00:28:54.483Z,9.50
2022-12-20T00:31:23.219Z,10.43
2022-12-20T00:33:52.038Z,9.57
2022-12-20T00:36:19.856Z,10.05
2022-12-20T00:38:48.608Z,10.20
2022-12-20T00:41:18.629Z,10.15
2022-12-20T00:43:45.070Z,10.05
2022-12-20T00:46:12.696Z,10.02
2022-12-20T00:48:39.535Z,10.50
2022-12-20T00:51:12.183Z,9.93
2022-12-20T00:53:39.574Z,9.95
2022-12-20T00:56:07.759Z,9.38
2022-12-20T00:58:37.056Z,9.55
2022-12-20T01:01:05.904Z,9.65
2022-12-20T01:03:32.564Z,9.60
2022-12-20T01:06:01.333Z,8.35
2022-12-20T01:08:30.080Z,8.82
2022-12-20T01:11:01.834Z,8.80
2022-12-20T01:13:28.849Z,8.30
2022-12-20T01:15:55.447Z,10.00
2022-12-20T01:18:22.055Z,8.98
2022-12-20T01:20:48.507Z,8.00
2022-12-20T01:23:14.967Z,9.30
2022-12-20T01:25:41.482Z,9.25
2022-12-20T01:28:07.933Z,9.38
2022-12-20T01:30:34.370Z,10.13
2022-12-20T01:33:00.819Z,8.10
2022-12-20T01:35:27.261Z,8.05
2022-12-20T01:37:53.922Z,8.75
2022-12-20T01:40:20.347Z,8.63
2022-12-20T01:42:46.778Z,8.50
2022-12-20T01:45:25.350Z,8.88
2022-12-20T01:47:51.959Z,8.75
2022-12-20T01:50:18.705Z,9.20
2022-12-20T01:52:47.198Z,8.60
2022-12-20T01:55:22.010Z,8.60
2022-12-20T01:57:59.088Z,8.55
2022-12-20T02:00:25.795Z,8.75
2022-12-20T02:02:52.538Z,9.57
2022-12-20T02:05:21.387Z,9.40
2022-12-20T02:07:51.734Z,9.23
2022-12-20T02:10:20.642Z,8.35
2022-12-20T02:12:48.519Z,8.40
2022-12-20T02:15:33.500Z,7.88
2022-12-20T02:18:07.636Z,7.88
2022-12-20T02:21:01.447Z,7.45
2022-12-20T02:23:52.398Z,8.15
2022-12-20T02:26:51.079Z,8.35
2022-12-20T02:29:22.628Z,8.13
2022-12-20T02:32:02.661Z,7.97
2022-12-20T02:34:33.012Z,7.60
2022-12-20T02:36:59.604Z,8.45
2022-12-20T02:39:29.529Z,7.78
2022-12-20T02:42:07.962Z,7.07
2022-12-20T02:44:56.681Z,7.20
2022-12-20T02:47:40.778Z,7.15
2022-12-20T02:50:09.917Z,7.28
2022-12-20T02:52:36.950Z,7.22
2022-12-20T02:55:05.081Z,6.70
2022-12-20T02:57:45.236Z,6.57
2022-12-20T03:00:15.359Z,6.95
2022-12-20T03:03:03.391Z,6.88
2022-12-20T03:05:31.200Z,6.85
2022-12-20T03:07:58.022Z,6.93
2022-12-20T03:10:25.713Z,5.63
2022-12-20T03:12:52.396Z,6.20
2022-12-20T03:15:19.186Z,5.80
2022-12-20T03:17:47.210Z,5.35
2022-12-20T03:20:13.990Z,4.72
2022-12-20T03:22:40.644Z,5.00
2022-12-20T03:25:07.779Z,4.45
2022-12-20T03:27:35.564Z,3.95
2022-12-20T03:30:04.698Z,4.72
2022-12-20T03:32:34.676Z,4.38
2022-12-20T03:35:01.201Z,3.88
2022-12-20T03:37:33.605Z,4.05
2022-12-20T03:40:03.073Z,3.25
2022-12-20T03:42:30.392Z,5.00
2022-12-20T03:44:57.030Z,4.80
2022-12-20T03:47:26.453Z,5.07
2022-12-20T03:49:53.220Z,4.20
2022-12-20T03:52:19.804Z,4.72
2022-12-20T03:54:47.064Z,3.55
2022-12-20T03:57:17.284Z,3.97
2022-12-20T03:59:46.179Z,4.07
2022-12-20T04:02:15.805Z,4.40
2022-12-20T04:04:42.956Z,4.07
2022-12-20T04:07:09.455Z,4.00
2022-12-20T04:09:38.667Z,4.00
2022-12-20T04:12:10.577Z,4.43
2022-12-20T04:14:38.795Z,4.13
2022-12-20T04:17:06.182Z,3.95
2022-12-20T04:19:33.831Z,4.28
2022-12-20T04:22:05.061Z,4.38
2022-12-20T04:24:44.237Z,4.65
2022-12-20T04:27:24.808Z,4.22
2022-12-20T04:29:53.411Z,4.57
2022-12-20T04:32:21.015Z,4.57
2022-12-20T04:34:48.471Z,4.18
2022-12-20T04:37:14.984Z,4.43
2022-12-20T04:39:46.924Z,4.15
2022-12-20T04:42:19.561Z,3.33
2022-12-20T04:44:46.463Z,4.57
2022-12-20T04:47:15.760Z,4.65
2022-12-20T04:49:43.173Z,3.90
2022-12-20T04:52:28.270Z,4.18
2022-12-20T04:54:54.903Z,4.10
2022-12-20T04:57:26.308Z,4.25
2022-12-20T04:59:52.787Z,4.05
2022-12-20T05:02:19.306Z,4.70
2022-12-20T05:04:50.671Z,4.82
2022-12-20T05:07:17.271Z,5.25
2022-12-20T05:09:49.937Z,4.55
2022-12-20T05:12:16.608Z,4.20
2022-12-20T05:14:44.348Z,4.47
2022-12-20T05:17:12.519Z,4.43
2022-12-20T05:19:39.164Z,4.50
2022-12-20T05:22:24.764Z,3.92
2022-12-20T05:25:24.548Z,4.47
2022-12-20T05:27:53.432Z,4.88
2022-12-20T05:30:22.295Z,3.75
2022-12-20T05:32:49.254Z,4.75
2022-12-20T05:35:15.773Z,4.80
2022-12-20T05:37:43.332Z,4.75
2022-12-20T05:40:16.239Z,4.93
2022-12-20T05:42:43.514Z,3.78
2022-12-20T05:45:11.157Z,6.10
2022-12-20T05:47:46.670Z,6.30
2022-12-20T05:50:18.619Z,6.75
2022-12-20T05:53:11.328Z,5.35
2022-12-20T05:55:51.323Z,6.15
2022-12-20T05:58:19.495Z,5.57
2022-12-20T06:00:54.242Z,5.43
2022-12-20T06:03:22.139Z,7.05
2022-12-20T06:05:49.945Z,7.30
2022-12-20T06:08:23.762Z,5.82
2022-12-20T06:10:51.932Z,6.25
2022-12-20T06:13:19.824Z,6.10
2022-12-20T06:15:48.043Z,6.53
2022-12-20T06:18:14.699Z,8.13
2022-12-20T06:20:41.242Z,9.43
2022-12-20T06:23:10.244Z,9.75
2022-12-20T06:25:47.624Z,10.95
2022-12-20T06:28:16.052Z,10.38
2022-12-20T06:30:42.884Z,7.63
2022-12-20T06:33:15.376Z,6.30
2022-12-20T06:35:41.808Z,6.32
2022-12-20T06:38:08.258Z,7.18
2022-12-20T06:40:35.718Z,6.93
2022-12-20T06:43:03.251Z,9.82
2022-12-20T06:45:29.953Z,8.60
2022-12-20T06:47:58.211Z,8.05
2022-12-20T06:50:25.601Z,7.80
2022-12-20T06:52:52.090Z,7.13
2022-12-20T06:55:18.555Z,6.57
2022-12-20T06:57:46.003Z,6.70
2022-12-20T07:00:13.559Z,6.32
2022-12-20T07:02:40.125Z,6.85
2022-12-20T07:05:06.974Z,6.47
2022-12-20T07:07:37.290Z,7.20
2022-12-20T07:10:08.556Z,7.15
2022-12-20T07:12:35.013Z,6.15
2022-12-20T07:15:01.503Z,7.15
2022-12-20T07:17:27.947Z,6.80
2022-12-20T07:19:54.397Z,7.47
2022-12-20T07:22:20.944Z,6.68
2022-12-20T07:24:47.932Z,6.15
2022-12-20T07:27:14.410Z,6.88
2022-12-20T07:29:41.980Z,7.18
2022-12-20T07:32:08.516Z,7.25
2022-12-20T07:34:36.965Z,6.00
2022-12-20T07:37:03.832Z,5.38
2022-12-20T07:39:30.385Z,5.45
2022-12-20T07:41:57.934Z,5.97
2022-12-20T07:44:24.684Z,6.65
2022-12-20T07:46:51.385Z,5.85
2022-12-20T07:49:17.878Z,7.00
2022-12-20T07:51:51.740Z,6.60
2022-12-20T07:54:21.368Z,6.13
2022-12-20T07:56:51.713Z,6.50
2022-12-20T07:59:24.933Z,6.18
2022-12-20T08:01:51.962Z,4.88
2022-12-20T08:04:24.945Z,6.68
2022-12-20T08:06:55.747Z,5.45
2022-12-20T08:09:24.454Z,6.35
2022-12-20T08:11:51.488Z,6.75
2022-12-20T08:14:19.404Z,5.47
2022-12-20T08:16:46.488Z,5.28
2022-12-20T08:19:13.024Z,4.97
2022-12-20T08:21:39.502Z,5.47
2022-12-20T08:24:06.336Z,6.20
2022-12-20T08:26:37.563Z,5.80
2022-12-20T08:29:04.174Z,5.57
2022-12-20T08:31:30.684Z,5.15
2022-12-20T08:33:57.182Z,4.50
2022-12-20T08:36:23.738Z,5.47
2022-12-20T08:38:50.202Z,5.97
2022-12-20T08:41:17.721Z,4.78
2022-12-20T08:43:44.215Z,5.97
2022-12-20T08:46:12.495Z,5.05
2022-12-20T08:48:39.983Z,5.57
2022-12-20T08:51:09.117Z,5.60
2022-12-20T08:53:36.632Z,5.53
2022-12-20T08:56:09.103Z,5.82
2022-12-20T08:58:36.038Z,5.45
2022-12-20T09:01:06.950Z,6.80
2022-12-20T09:03:35.294Z,5.35
2022-12-20T09:06:04.903Z,6.10
2022-12-20T09:08:31.363Z,5.43
2022-12-20T09:11:09.228Z,5.70
2022-12-20T09:13:43.150Z,4.97
2022-12-20T09:16:11.955Z,5.15
2022-12-20T09:18:38.564Z,5.10
2022-12-20T09:21:07.141Z,4.80
2022-12-20T09:23:35.266Z,5.70
2022-12-20T09:26:04.259Z,5.07
2022-12-20T09:28:31.917Z,5.55
2022-12-20T09:31:00.469Z,5.90
2022-12-20T09:33:28.893Z,4.80
2022-12-20T09:35:55.435Z,5.57
2022-12-20T09:38:22.345Z,5.05
2022-12-20T09:40:52.062Z,5.70
2022-12-20T09:43:23.389Z,5.75
2022-12-20T09:45:57.868Z,4.57
2022-12-20T09:48:29.554Z,5.68
2022-12-20T09:51:20.774Z,4.70
2022-12-20T09:53:56.028Z,4.93
2022-12-20T09:56:45.123Z,4.85
2022-12-20T09:59:15.012Z,4.65
2022-12-20T10:01:47.154Z,4.75
2022-12-20T10:04:40.280Z,4.90
2022-12-20T10:07:34.953Z,4.60
2022-12-20T10:10:26.900Z,4.47
2022-12-20T10:13:22.609Z,4.97
2022-12-20T10:16:00.195Z,5.72
2022-12-20T10:18:32.947Z,6.18
2022-12-20T10:21:18.874Z,6.53
2022-12-20T10:24:02.656Z,5.70
2022-12-20T10:26:30.779Z,5.18
2022-12-20T10:28:57.392Z,5.40
2022-12-20T10:31:25.450Z,5.30
2022-12-20T10:33:52.244Z,4.30
2022-12-20T10:36:23.591Z,4.05
2022-12-20T10:38:53.039Z,4.07
2022-12-20T10:41:28.221Z,4.32
2022-12-20T10:43:56.720Z,4.68
2022-12-20T10:46:34.405Z,4.40
2022-12-20T10:49:22.026Z,4.15
2022-12-20T10:51:53.684Z,4.55
2022-12-20T10:54:27.021Z,5.55
2022-12-20T10:56:59.562Z,9.57
2022-12-20T10:59:32.273Z,12.18
2022-12-20T11:01:59.386Z,7.20
2022-12-20T11:04:30.472Z,12.55
2022-12-20T11:06:58.303Z,8.43
2022-12-20T11:09:36.353Z,7.63
2022-12-20T11:12:16.144Z,5.70
2022-12-20T11:14:45.682Z,5.70
2022-12-20T11:17:50.162Z,5.10
2022-12-20T11:20:28.788Z,6.07
2022-12-20T11:23:23.895Z,5.85
2022-12-20T11:26:01.567Z,5.40
2022-12-20T11:28:37.825Z,5.18
2022-12-20T11:31:35.628Z,4.43
2022-12-20T11:34:47.927Z,4.90
2022-12-20T11:37:21.380Z,4.22
2022-12-20T11:40:16.412Z,4.93
2022-12-20T11:42:54.972Z,5.50
2022-12-20T11:45:47.875Z,4.97
2022-12-20T11:48:38.978Z,4.43
2022-12-20T11:51:48.954Z,5.13
2022-12-20T11:54:33.513Z,4.97
2022-12-20T11:57:12.874Z,4.07
2022-12-20T11:59:48.898Z,4.97
2022-12-20T12:02:31.819Z,6.13
2022-12-20T12:05:03.355Z,4.60
2022-12-20T12:07:32.800Z,5.35
2022-12-20T12:10:20.198Z,4.45
2022-12-20T12:13:07.525Z,4.63
2022-12-20T12:15:54.133Z,4.70
2022-12-20T12:18:24.591Z,4.65
2022-12-20T12:21:03.521Z,4.70
2022-12-20T12:23:59.615Z,4.55
2022-12-20T12:26:29.527Z,4.88
2022-12-20T12:28:59.545Z,5.00
2022-12-20T12:31:37.218Z,4.63
2022-12-20T12:34:30.213Z,4.78
2022-12-20T12:37:11.577Z,5.47
2022-12-20T12:40:00.138Z,4.18
2022-12-20T12:42:36.332Z,4.32
2022-12-20T12:45:15.334Z,4.38
2022-12-20T12:48:02.101Z,4.18
2022-12-20T12:50:42.901Z,4.32
2022-12-20T12:53:17.640Z,3.85
2022-12-20T12:55:47.635Z,4.25
2022-12-20T12:58:22.890Z,3.83
2022-12-20T13:00:49.475Z,4.18
2022-12-20T13:03:17.443Z,4.80
2022-12-20T13:05:44.053Z,3.75
2022-12-20T13:08:17.880Z,3.47
2022-12-20T13:10:44.462Z,4.53
2022-12-20T13:13:22.572Z,4.68
2022-12-20T13:15:50.842Z,3.83
2022-12-20T13:18:22.701Z,3.60
2022-12-20T13:21:32.178Z,4.15
2022-12-20T13:24:36.533Z,4.50
2022-12-20T13:27:15.274Z,3.90
2022-12-20T13:30:04.854Z,4.00
2022-12-20T13:32:46.479Z,3.70
2022-12-20T13:35:28.209Z,3.65
2022-12-20T13:38:03.966Z,3.65
2022-12-20T13:40:31.310Z,3.97
2022-12-20T13:43:03.822Z,3.50
2022-12-20T13:45:30.369Z,3.75
2022-12-20T13:48:11.111Z,3.47
2022-12-20T13:50:47.328Z,4.07
2022-12-20T13:53:22.702Z,4.95
2022-12-20T13:55:50.175Z,4.27
2022-12-20T13:58:21.516Z,3.92
2022-12-20T14:00:49.635Z,3.90
2022-12-20T14:03:24.790Z,4.30
2022-12-20T14:06:12.955Z,3.90
2022-12-20T14:08:45.852Z,3.78
2022-12-20T14:11:14.943Z,5.22
2022-12-20T14:13:42.256Z,4.55
2022-12-20T14:16:32.591Z,5.20
2022-12-20T14:19:04.034Z,5.65
2022-12-20T14:21:31.619Z,7.28
2022-12-20T14:24:00.809Z,7.05
2022-12-20T14:26:30.839Z,5.68
2022-12-20T14:29:00.121Z,6.30
2022-12-20T14:31:34.499Z,6.57
2022-12-20T14:34:10.543Z,5.15
2022-12-20T14:36:38.868Z,6.80
2022-12-20T14:39:26.239Z,4.50
2022-12-20T14:42:12.452Z,5.07
2022-12-20T14:44:39.624Z,4.70
2022-12-20T14:47:28.198Z,5.85
2022-12-20T14:50:00.355Z,4.72
2022-12-20T14:52:32.669Z,4.70
2022-12-20T14:55:09.395Z,4.40
2022-12-20T14:57:36.560Z,5.30
2022-12-20T15:00:21.640Z,4.65
2022-12-20T15:02:59.443Z,3.80
2022-12-20T15:05:31.959Z,4.07
2022-12-20T15:08:32.946Z,4.20
2022-12-20T15:11:14.661Z,3.65
2022-12-20T15:13:45.357Z,4.32
2022-12-20T15:16:23.937Z,4.03
2022-12-20T15:18:52.813Z,4.55
2022-12-20T15:21:30.430Z,4.40
2022-12-20T15:23:58.229Z,4.65
2022-12-20T15:26:26.810Z,4.20
2022-12-20T15:28:53.960Z,4.75
2022-12-20T15:31:29.028Z,4.90
2022-12-20T15:33:59.267Z,5.15
2022-12-20T15:36:28.143Z,5.10
2022-12-20T15:39:12.725Z,5.05
2022-12-20T15:41:43.207Z,5.05
2022-12-20T15:44:19.568Z,5.53
2022-12-20T15:49:18.440Z,4.70
2022-12-20T15:51:47.325Z,4.18
2022-12-20T15:54:32.836Z,4.65
2022-12-20T15:57:07.296Z,5.10
2022-12-20T15:59:59.950Z,4.10
2022-12-20T16:02:24.102Z,4.25
2022-12-20T16:04:51.662Z,6.05
2022-12-20T16:07:18.258Z,5.13
2022-12-20T16:09:44.794Z,5.07
2022-12-20T16:12:26.985Z,4.25
2022-12-20T16:14:53.620Z,4.53
2022-12-20T16:17:20.036Z,4.53
2022-12-20T16:19:46.660Z,5.20
2022-12-20T16:22:25.947Z,4.60
2022-12-20T16:24:52.440Z,4.40
2022-12-20T16:27:20.302Z,6.00
2022-12-20T16:29:46.924Z,6.45
2022-12-20T16:32:18.559Z,6.60
2022-12-20T16:34:45.848Z,7.93
2022-12-20T16:37:12.586Z,6.82
2022-12-20T16:39:39.353Z,7.22
2022-12-20T16:42:18.346Z,6.72
2022-12-20T16:44:45.736Z,5.43
2022-12-20T16:47:13.959Z,5.32
2022-12-20T16:49:47.294Z,5.55
2022-12-20T16:52:19.060Z,4.47
2022-12-20T16:54:45.533Z,4.45
2022-12-20T16:57:12.007Z,3.75
2022-12-20T16:59:38.480Z,4.90
2022-12-20T17:02:21.474Z,3.97
2022-12-20T17:04:48.137Z,3.80
2022-12-20T17:07:14.793Z,3.95
2022-12-20T17:09:41.187Z,3.72
2022-12-20T17:12:25.785Z,4.38
2022-12-20T17:14:52.394Z,3.78
2022-12-20T17:17:18.833Z,3.50
2022-12-20T17:19:45.287Z,3.63
2022-12-20T17:24:57.071Z,3.30
2022-12-20T17:27:23.520Z,3.45
2022-12-20T17:29:50.678Z,3.85
2022-12-20T17:32:21.055Z,3.25
2022-12-20T17:34:47.977Z,2.95
2022-12-20T17:37:14.467Z,3.03
2022-12-20T17:39:40.904Z,2.70
2022-12-20T17:42:12.526Z,3.05
2022-12-20T17:44:39.082Z,3.33
2022-12-20T17:47:06.414Z,3.13
2022-12-20T17:49:32.970Z,3.88
2022-12-20T17:51:59.404Z,4.57
2022-12-20T17:54:32.040Z,4.18
2022-12-20T17:57:01.535Z,4.13
2022-12-20T17:59:29.269Z,3.85
2022-12-20T18:01:56.206Z,3.28
2022-12-20T18:04:22.815Z,3.30
2022-12-20T18:06:49.889Z,4.20
2022-12-20T18:09:18.905Z,8.77
2022-12-20T18:11:46.283Z,8.30
2022-12-20T18:14:13.315Z,9.75
2022-12-20T18:16:40.324Z,11.75
2022-12-20T18:19:08.069Z,11.43
2022-12-20T18:21:34.965Z,11.30
2022-12-20T18:24:01.541Z,15.75
2022-12-20T18:26:32.401Z,18.90
2022-12-20T18:29:01.064Z,13.05
2022-12-20T18:31:30.337Z,9.90
2022-12-20T18:33:58.740Z,6.07
2022-12-20T18:36:31.174Z,5.57
2022-12-20T18:38:59.762Z,4.43
2022-12-20T18:41:28.560Z,4.03
2022-12-20T18:44:04.070Z,4.50
2022-12-20T18:46:30.764Z,3.30
2022-12-20T18:48:58.727Z,3.55
2022-12-20T18:51:28.064Z,4.50
2022-12-20T18:53:56.684Z,5.18
2022-12-20T18:56:25.599Z,6.53
2022-12-20T18:58:52.658Z,5.70
2022-12-20T19:01:21.741Z,6.32
2022-12-20T19:03:50.248Z,5.70
2022-12-20T19:06:17.804Z,4.80
2022-12-20T19:08:44.588Z,4.88
2022-12-20T19:11:16.944Z,5.72
2022-12-20T19:13:43.980Z,5.90
2022-12-20T19:16:13.576Z,6.53
2022-12-20T19:18:42.854Z,6.75
2022-12-20T19:21:15.079Z,7.88
2022-12-20T19:23:43.776Z,5.65
2022-12-20T19:26:13.373Z,4.63
2022-12-20T19:28:41.555Z,3.47
2022-12-20T19:31:15.650Z,3.45
2022-12-20T19:33:47.400Z,3.40
2022-12-20T19:36:19.848Z,3.13
2022-12-20T19:38:59.768Z,2.75
2022-12-20T19:41:31.295Z,4.22
2022-12-20T19:43:58.520Z,4.50
2022-12-20T19:46:29.358Z,4.70
2022-12-20T19:48:57.619Z,6.18
2022-12-20T19:51:24.193Z,8.40
2022-12-20T19:53:53.206Z,7.00
2022-12-20T19:56:22.893Z,9.50
2022-12-20T19:58:49.644Z,10.20
2022-12-20T20:01:17.893Z,10.18
2022-12-20T20:03:45.104Z,9.52
2022-12-20T20:06:11.965Z,11.63
2022-12-20T20:08:38.573Z,10.57
2022-12-20T20:11:09.434Z,11.38
2022-12-20T20:13:36.110Z,12.23
2022-12-20T20:16:04.066Z,11.25
2022-12-20T20:18:36.556Z,11.32
2022-12-20T20:21:13.499Z,15.05
2022-12-20T20:23:40.256Z,20.10
2022-12-20T20:26:09.978Z,18.05
2022-12-20T20:28:44.524Z,17.33
2022-12-20T20:31:14.252Z,17.48
2022-12-20T20:33:41.184Z,15.88
2022-12-20T20:36:08.013Z,13.80
2022-12-20T20:38:34.890Z,11.95
2022-12-20T20:41:01.707Z,8.52
2022-12-20T20:43:29.737Z,8.50
2022-12-20T20:45:56.884Z,6.72
2022-12-20T20:48:23.530Z,5.40
2022-12-20T20:50:50.039Z,4.43
2022-12-20T20:53:16.470Z,4.07
2022-12-20T20:55:42.961Z,4.13
2022-12-20T20:58:09.479Z,3.38
2022-12-20T21:00:36.033Z,3.63
2022-12-20T21:03:02.639Z,3.78
2022-12-20T21:06:21.930Z,4.07
2022-12-20T21:08:16.128Z,3.58
2022-12-20T21:10:43.091Z,3.58
2022-12-20T21:13:09.607Z,3.17
2022-12-20T21:15:36.149Z,3.03
2022-12-20T21:18:02.965Z,3.05
2022-12-20T21:20:29.416Z,2.65
2022-12-20T21:22:57.223Z,3.08
2022-12-20T21:25:23.816Z,3.03
2022-12-20T21:27:50.265Z,2.95
2022-12-20T21:30:17.471Z,3.25
2022-12-20T21:32:43.906Z,4.50
2022-12-20T21:35:11.290Z,3.90
2022-12-20T21:37:37.723Z,4.07
2022-12-20T21:40:04.542Z,3.83
2022-12-20T21:42:31.593Z,3.25
2022-12-20T21:44:58.005Z,3.20
2022-12-20T21:47:24.713Z,4.10
2022-12-20T21:49:51.360Z,2.75
2022-12-20T21:52:17.935Z,2.53
2022-12-20T21:54:44.429Z,2.50
2022-12-20T21:57:10.951Z,2.63
2022-12-20T21:59:37.855Z,3.40
2022-12-20T22:02:05.420Z,3.60
2022-12-20T22:04:32.938Z,2.95
2022-12-20T22:06:59.369Z,2.95
2022-12-20T22:09:25.873Z,2.67
2022-12-20T22:11:52.294Z,3.22
2022-12-20T22:14:18.837Z,3.25
2022-12-20T22:16:45.459Z,2.58
2022-12-20T22:19:15.516Z,3.03
2022-12-20T22:21:42.192Z,3.00
2022-12-20T22:24:09.601Z,4.40
2022-12-20T22:26:36.848Z,3.65
2022-12-20T22:29:06.400Z,3.55
2022-12-20T22:31:33.436Z,4.00
2022-12-20T22:34:00.580Z,4.85
2022-12-20T22:36:28.019Z,5.70
2022-12-20T22:38:56.538Z,6.10
2022-12-20T22:41:26.405Z,4.82
2022-12-20T22:43:53.711Z,5.55
2022-12-20T22:46:20.574Z,4.28
2022-12-20T22:48:47.370Z,4.55
2022-12-20T22:51:17.713Z,4.25
2022-12-20T22:53:45.291Z,4.35
2022-12-20T22:56:12.013Z,5.07
2022-12-20T22:58:39.204Z,4.40
2022-12-20T23:01:08.964Z,4.85
2022-12-20T23:03:37.074Z,3.88
2022-12-20T23:06:05.656Z,4.47
2022-12-20T23:08:35.899Z,5.22
2022-12-20T23:11:21.454Z,5.18
2022-12-20T23:14:06.358Z,4.18
2022-12-20T23:16:32.863Z,2.88
2022-12-20T23:19:01.474Z,3.80
2022-12-20T23:21:47.896Z,2.58
2022-12-20T23:24:15.272Z,2.80
2022-12-20T23:26:42.656Z,3.00
2022-12-20T23:29:09.794Z,2.78
2022-12-20T23:31:36.590Z,2.20
2022-12-20T23:34:03.926Z,2.40
2022-12-20T23:36:30.772Z,1.88
2022-12-20T23:38:57.235Z,2.00
2022-12-20T23:41:23.746Z,2.20
2022-12-20T23:43:50.465Z,2.10
2022-12-20T23:46:19.348Z,2.20
2022-12-20T23:48:45.971Z,1.77
2022-12-20T23:51:12.409Z,2.20
2022-12-20T23:53:39.197Z,1.75
2022-12-20T23:56:12.709Z,2.00
2022-12-20T23:58:39.515Z,2.15
